sensor_id;sensor_type;location;lat;lon;timestamp;pressure;altitude;pressure_sealevel;temperature;humidity
69842;BME280;57138;51.326;-0.068;2023-06-24T00:00:35;100637.25;;;18.30;65.29
69842;BME280;57138;51.326;-0.068;2023-06-24T00:03:02;100635.00;;;18.27;65.13
69842;BME280;57138;51.326;-0.068;2023-06-24T00:05:28;100630.06;;;18.24;65.57
69842;BME280;57138;51.326;-0.068;2023-06-24T00:07:54;100638.63;;;18.21;65.47
69842;BME280;57138;51.326;-0.068;2023-06-24T00:10:22;100632.63;;;18.19;65.90
69842;BME280;57138;51.326;-0.068;2023-06-24T00:12:48;100621.69;;;18.14;65.94
69842;BME280;57138;51.326;-0.068;2023-06-24T00:15:13;100641.09;;;18.11;66.12
69842;BME280;57138;51.326;-0.068;2023-06-24T00:17:39;100636.34;;;18.06;66.57
69842;BME280;57138;51.326;-0.068;2023-06-24T00:20:06;100635.50;;;18.06;66.76
69842;BME280;57138;51.326;-0.068;2023-06-24T00:22:34;100636.81;;;18.03;66.68
69842;BME280;57138;51.326;-0.068;2023-06-24T00:25:00;100635.38;;;18.01;67.10
69842;BME280;57138;51.326;-0.068;2023-06-24T00:27:26;100633.13;;;17.98;66.89
69842;BME280;57138;51.326;-0.068;2023-06-24T00:29:51;100636.88;;;17.96;67.61
69842;BME280;57138;51.326;-0.068;2023-06-24T00:32:17;100639.00;;;17.94;67.29
69842;BME280;57138;51.326;-0.068;2023-06-24T00:34:42;100641.09;;;17.92;67.72
69842;BME280;57138;51.326;-0.068;2023-06-24T00:37:09;100644.84;;;17.91;67.86
69842;BME280;57138;51.326;-0.068;2023-06-24T00:39:35;100639.91;;;17.88;67.75
69842;BME280;57138;51.326;-0.068;2023-06-24T00:42:01;100641.97;;;17.86;67.80
69842;BME280;57138;51.326;-0.068;2023-06-24T00:44:27;100645.13;;;17.83;67.87
69842;BME280;57138;51.326;-0.068;2023-06-24T00:46:53;100631.25;;;17.79;67.93
69842;BME280;57138;51.326;-0.068;2023-06-24T00:49:19;100628.75;;;17.78;68.24
69842;BME280;57138;51.326;-0.068;2023-06-24T00:51:44;100627.56;;;17.74;68.60
69842;BME280;57138;51.326;-0.068;2023-06-24T00:54:16;100631.06;;;17.74;68.72
69842;BME280;57138;51.326;-0.068;2023-06-24T00:56:42;100629.66;;;17.72;68.88
69842;BME280;57138;51.326;-0.068;2023-06-24T00:59:10;100634.69;;;17.68;68.97
69842;BME280;57138;51.326;-0.068;2023-06-24T01:01:37;100628.31;;;17.63;69.26
69842;BME280;57138;51.326;-0.068;2023-06-24T01:04:03;100639.34;;;17.61;68.80
69842;BME280;57138;51.326;-0.068;2023-06-24T01:06:30;100632.50;;;17.58;69.43
69842;BME280;57138;51.326;-0.068;2023-06-24T01:08:59;100630.25;;;17.55;69.72
69842;BME280;57138;51.326;-0.068;2023-06-24T01:11:29;100631.16;;;17.49;69.82
69842;BME280;57138;51.326;-0.068;2023-06-24T01:13:55;100623.25;;;17.48;70.04
69842;BME280;57138;51.326;-0.068;2023-06-24T01:24:51;100615.09;;;17.36;70.94
69842;BME280;57138;51.326;-0.068;2023-06-24T01:30:31;100607.91;;;17.23;71.15
69842;BME280;57138;51.326;-0.068;2023-06-24T01:33:04;100617.75;;;17.17;71.13
69842;BME280;57138;51.326;-0.068;2023-06-24T01:35:33;100614.44;;;17.15;71.48
69842;BME280;57138;51.326;-0.068;2023-06-24T01:38:03;100611.38;;;17.12;71.51
69842;BME280;57138;51.326;-0.068;2023-06-24T01:40:43;100610.13;;;17.07;72.38
69842;BME280;57138;51.326;-0.068;2023-06-24T01:43:10;100608.72;;;17.05;72.38
69842;BME280;57138;51.326;-0.068;2023-06-24T01:45:48;100608.31;;;17.01;73.08
69842;BME280;57138;51.326;-0.068;2023-06-24T01:48:35;100593.41;;;16.99;73.53
69842;BME280;57138;51.326;-0.068;2023-06-24T01:51:08;100593.00;;;16.95;73.19
69842;BME280;57138;51.326;-0.068;2023-06-24T01:53:38;100595.94;;;16.94;73.11
69842;BME280;57138;51.326;-0.068;2023-06-24T01:56:10;100592.03;;;16.89;73.41
69842;BME280;57138;51.326;-0.068;2023-06-24T01:58:36;100596.81;;;16.87;73.33
69842;BME280;57138;51.326;-0.068;2023-06-24T02:01:03;100598.88;;;16.85;73.92
69842;BME280;57138;51.326;-0.068;2023-06-24T02:03:31;100597.69;;;16.81;74.01
69842;BME280;57138;51.326;-0.068;2023-06-24T02:05:58;100597.69;;;16.81;74.24
69842;BME280;57138;51.326;-0.068;2023-06-24T02:08:24;100602.25;;;16.81;74.09
69842;BME280;57138;51.326;-0.068;2023-06-24T02:10:51;100598.72;;;16.80;74.48
69842;BME280;57138;51.326;-0.068;2023-06-24T02:13:18;100598.56;;;16.75;74.90
69842;BME280;57138;51.326;-0.068;2023-06-24T02:15:45;100588.66;;;16.69;75.22
69842;BME280;57138;51.326;-0.068;2023-06-24T02:18:13;100589.69;;;16.68;75.20
69842;BME280;57138;51.326;-0.068;2023-06-24T02:20:41;100592.81;;;16.65;75.47
69842;BME280;57138;51.326;-0.068;2023-06-24T02:23:09;100588.28;;;16.59;75.83
69842;BME280;57138;51.326;-0.068;2023-06-24T02:25:36;100583.78;;;16.52;76.45
69842;BME280;57138;51.326;-0.068;2023-06-24T02:28:05;100590.44;;;16.50;76.77
69842;BME280;57138;51.326;-0.068;2023-06-24T02:30:34;100583.63;;;16.47;76.58
69842;BME280;57138;51.326;-0.068;2023-06-24T02:33:00;100597.53;;;16.44;76.95
69842;BME280;57138;51.326;-0.068;2023-06-24T02:35:25;100590.09;;;16.40;77.04
69842;BME280;57138;51.326;-0.068;2023-06-24T02:37:51;100590.75;;;16.35;77.18
69842;BME280;57138;51.326;-0.068;2023-06-24T02:40:16;100582.03;;;16.33;77.65
69842;BME280;57138;51.326;-0.068;2023-06-24T02:42:42;100583.53;;;16.29;77.69
69842;BME280;57138;51.326;-0.068;2023-06-24T02:45:07;100586.88;;;16.24;78.24
69842;BME280;57138;51.326;-0.068;2023-06-24T02:47:34;100596.84;;;16.24;78.35
69842;BME280;57138;51.326;-0.068;2023-06-24T02:50:01;100591.03;;;16.20;78.27
69842;BME280;57138;51.326;-0.068;2023-06-24T02:52:27;100592.91;;;16.20;78.65
69842;BME280;57138;51.326;-0.068;2023-06-24T02:54:58;100590.81;;;16.22;78.56
69842;BME280;57138;51.326;-0.068;2023-06-24T02:57:24;100592.31;;;16.17;78.58
69842;BME280;57138;51.326;-0.068;2023-06-24T02:59:51;100590.66;;;16.16;78.52
69842;BME280;57138;51.326;-0.068;2023-06-24T03:02:16;100600.41;;;16.17;78.79
69842;BME280;57138;51.326;-0.068;2023-06-24T03:04:42;100591.50;;;16.10;78.92
69842;BME280;57138;51.326;-0.068;2023-06-24T03:07:09;100590.06;;;16.08;79.66
69842;BME280;57138;51.326;-0.068;2023-06-24T03:09:36;100588.22;;;16.08;79.33
69842;BME280;57138;51.326;-0.068;2023-06-24T03:12:01;100596.09;;;16.03;79.71
69842;BME280;57138;51.326;-0.068;2023-06-24T03:14:27;100595.94;;;15.98;79.86
69842;BME280;57138;51.326;-0.068;2023-06-24T03:16:52;100587.47;;;15.88;80.65
69842;BME280;57138;51.326;-0.068;2023-06-24T03:19:18;100587.28;;;15.82;81.03
69842;BME280;57138;51.326;-0.068;2023-06-24T03:21:43;100592.69;;;15.82;81.58
69842;BME280;57138;51.326;-0.068;2023-06-24T03:24:09;100604.97;;;15.78;81.56
69842;BME280;57138;51.326;-0.068;2023-06-24T03:26:35;100601.41;;;15.78;81.37
69842;BME280;57138;51.326;-0.068;2023-06-24T03:29:01;100595.00;;;15.72;81.75
69842;BME280;57138;51.326;-0.068;2023-06-24T03:31:27;100597.06;;;15.70;82.41
69842;BME280;57138;51.326;-0.068;2023-06-24T03:33:52;100600.81;;;15.69;82.05
69842;BME280;57138;51.326;-0.068;2023-06-24T03:36:18;100598.13;;;15.69;82.25
69842;BME280;57138;51.326;-0.068;2023-06-24T03:38:43;100600.81;;;15.69;82.34
69842;BME280;57138;51.326;-0.068;2023-06-24T03:41:09;100602.88;;;15.67;82.72
69842;BME280;57138;51.326;-0.068;2023-06-24T03:43:34;100610.34;;;15.65;82.86
69842;BME280;57138;51.326;-0.068;2023-06-24T03:45:59;100598.53;;;15.59;83.32
69842;BME280;57138;51.326;-0.068;2023-06-24T03:48:25;100606.41;;;15.61;83.87
69842;BME280;57138;51.326;-0.068;2023-06-24T03:50:51;100592.97;;;15.54;84.00
69842;BME280;57138;51.326;-0.068;2023-06-24T03:53:17;100606.63;;;15.59;84.16
69842;BME280;57138;51.326;-0.068;2023-06-24T03:55:43;100603.94;;;15.59;83.94
69842;BME280;57138;51.326;-0.068;2023-06-24T03:58:08;100616.16;;;15.62;84.16
69842;BME280;57138;51.326;-0.068;2023-06-24T04:00:34;100607.47;;;15.60;84.55
69842;BME280;57138;51.326;-0.068;2023-06-24T04:03:01;100613.25;;;15.63;84.60
69842;BME280;57138;51.326;-0.068;2023-06-24T04:05:26;100605.38;;;15.62;84.53
69842;BME280;57138;51.326;-0.068;2023-06-24T04:07:52;100621.13;;;15.65;84.37
69842;BME280;57138;51.326;-0.068;2023-06-24T04:10:18;100616.78;;;15.64;84.58
69842;BME280;57138;51.326;-0.068;2023-06-24T04:12:45;100614.72;;;15.66;85.00
69842;BME280;57138;51.326;-0.068;2023-06-24T04:15:11;100612.88;;;15.60;84.58
69842;BME280;57138;51.326;-0.068;2023-06-24T04:17:36;100612.44;;;15.63;85.43
69842;BME280;57138;51.326;-0.068;2023-06-24T04:20:02;100617.84;;;15.63;85.82
69842;BME280;57138;51.326;-0.068;2023-06-24T04:22:45;100620.31;;;15.64;85.78
69842;BME280;57138;51.326;-0.068;2023-06-24T04:25:11;100618.66;;;15.63;85.98
69842;BME280;57138;51.326;-0.068;2023-06-24T04:27:37;100629.41;;;15.70;86.00
69842;BME280;57138;51.326;-0.068;2023-06-24T04:30:03;100626.06;;;15.75;86.09
69842;BME280;57138;51.326;-0.068;2023-06-24T04:32:29;100621.53;;;15.75;86.19
69842;BME280;57138;51.326;-0.068;2023-06-24T04:34:54;100627.56;;;15.77;85.97
69842;BME280;57138;51.326;-0.068;2023-06-24T04:37:20;100623.16;;;15.76;86.68
69842;BME280;57138;51.326;-0.068;2023-06-24T04:39:45;100624.44;;;15.74;85.91
69842;BME280;57138;51.326;-0.068;2023-06-24T04:42:11;100626.91;;;15.75;85.77
69842;BME280;57138;51.326;-0.068;2023-06-24T04:44:36;100624.44;;;15.80;85.78
69842;BME280;57138;51.326;-0.068;2023-06-24T04:47:02;100624.00;;;15.84;85.80
69842;BME280;57138;51.326;-0.068;2023-06-24T04:49:28;100626.88;;;15.89;85.62
69842;BME280;57138;51.326;-0.068;2023-06-24T04:51:53;100628.56;;;15.90;86.10
69842;BME280;57138;51.326;-0.068;2023-06-24T04:54:19;100635.16;;;15.94;86.12
69842;BME280;57138;51.326;-0.068;2023-06-24T04:56:44;100629.31;;;15.97;86.17
69842;BME280;57138;51.326;-0.068;2023-06-24T04:59:10;100622.47;;;16.01;85.65
69842;BME280;57138;51.326;-0.068;2023-06-24T05:01:36;100626.16;;;16.13;86.24
69842;BME280;57138;51.326;-0.068;2023-06-24T05:04:01;100623.41;;;16.27;86.47
69842;BME280;57138;51.326;-0.068;2023-06-24T05:06:27;100637.63;;;16.41;85.76
69842;BME280;57138;51.326;-0.068;2023-06-24T05:08:52;100641.69;;;16.57;85.89
69842;BME280;57138;51.326;-0.068;2023-06-24T05:11:17;100642.22;;;16.72;85.53
69842;BME280;57138;51.326;-0.068;2023-06-24T05:13:43;100641.69;;;16.88;85.15
69842;BME280;57138;51.326;-0.068;2023-06-24T05:16:08;100647.88;;;16.96;84.48
69842;BME280;57138;51.326;-0.068;2023-06-24T05:18:34;100641.75;;;17.07;84.42
69842;BME280;57138;51.326;-0.068;2023-06-24T05:20:59;100646.81;;;17.22;84.48
69842;BME280;57138;51.326;-0.068;2023-06-24T05:23:25;100644.19;;;17.34;83.01
69842;BME280;57138;51.326;-0.068;2023-06-24T05:25:50;100649.94;;;17.44;83.03
69842;BME280;57138;51.326;-0.068;2023-06-24T05:28:16;100641.53;;;17.52;81.80
69842;BME280;57138;51.326;-0.068;2023-06-24T05:30:41;100647.28;;;17.56;81.27
69842;BME280;57138;51.326;-0.068;2023-06-24T05:33:07;100643.69;;;17.62;81.42
69842;BME280;57138;51.326;-0.068;2023-06-24T05:35:33;100641.31;;;17.72;81.80
69842;BME280;57138;51.326;-0.068;2023-06-24T05:37:58;100644.09;;;17.84;81.00
69842;BME280;57138;51.326;-0.068;2023-06-24T05:40:23;100642.72;;;17.93;80.76
69842;BME280;57138;51.326;-0.068;2023-06-24T05:42:49;100647.63;;;18.03;80.21
69842;BME280;57138;51.326;-0.068;2023-06-24T05:45:14;100642.72;;;18.12;79.71
69842;BME280;57138;51.326;-0.068;2023-06-24T05:47:41;100637.47;;;18.17;78.90
69842;BME280;57138;51.326;-0.068;2023-06-24T05:50:06;100635.94;;;18.21;78.98
69842;BME280;57138;51.326;-0.068;2023-06-24T05:52:32;100645.63;;;18.29;79.10
69842;BME280;57138;51.326;-0.068;2023-06-24T05:54:57;100635.53;;;18.36;78.59
69842;BME280;57138;51.326;-0.068;2023-06-24T05:57:23;100638.72;;;18.45;78.43
69842;BME280;57138;51.326;-0.068;2023-06-24T05:59:49;100639.22;;;18.54;78.61
69842;BME280;57138;51.326;-0.068;2023-06-24T06:02:14;100639.75;;;18.62;77.76
69842;BME280;57138;51.326;-0.068;2023-06-24T06:04:39;100636.22;;;18.74;77.58
69842;BME280;57138;51.326;-0.068;2023-06-24T06:07:05;100646.28;;;18.85;77.71
69842;BME280;57138;51.326;-0.068;2023-06-24T06:09:30;100639.56;;;18.99;77.48
69842;BME280;57138;51.326;-0.068;2023-06-24T06:11:57;100650.94;;;19.20;77.07
69842;BME280;57138;51.326;-0.068;2023-06-24T06:14:22;100648.56;;;19.35;76.02
69842;BME280;57138;51.326;-0.068;2023-06-24T06:16:48;100654.44;;;19.56;76.14
69842;BME280;57138;51.326;-0.068;2023-06-24T06:19:13;100646.66;;;19.71;75.17
69842;BME280;57138;51.326;-0.068;2023-06-24T06:21:38;100651.72;;;19.80;74.58
69842;BME280;57138;51.326;-0.068;2023-06-24T06:24:05;100644.41;;;19.80;73.77
69842;BME280;57138;51.326;-0.068;2023-06-24T06:26:30;100644.88;;;19.77;74.52
69842;BME280;57138;51.326;-0.068;2023-06-24T06:28:56;100658.19;;;19.79;73.71
69842;BME280;57138;51.326;-0.068;2023-06-24T06:31:21;100654.44;;;19.80;73.65
69842;BME280;57138;51.326;-0.068;2023-06-24T06:33:48;100650.31;;;19.77;73.27
69842;BME280;57138;51.326;-0.068;2023-06-24T06:36:13;100660.53;;;19.75;73.90
69842;BME280;57138;51.326;-0.068;2023-06-24T06:38:40;100662.44;;;19.74;73.67
69842;BME280;57138;51.326;-0.068;2023-06-24T06:41:08;100656.88;;;19.69;73.34
69842;BME280;57138;51.326;-0.068;2023-06-24T06:43:33;100661.75;;;19.67;73.46
69842;BME280;57138;51.326;-0.068;2023-06-24T06:45:59;100652.06;;;19.71;74.20
69842;BME280;57138;51.326;-0.068;2023-06-24T06:48:24;100651.72;;;19.80;73.85
69842;BME280;57138;51.326;-0.068;2023-06-24T06:50:50;100657.63;;;19.77;73.22
69842;BME280;57138;51.326;-0.068;2023-06-24T06:53:17;100657.97;;;19.68;72.57
69842;BME280;57138;51.326;-0.068;2023-06-24T06:55:43;100654.44;;;19.56;73.54
69842;BME280;57138;51.326;-0.068;2023-06-24T06:58:08;100650.88;;;19.55;73.37
69842;BME280;57138;51.326;-0.068;2023-06-24T07:00:34;100651.84;;;19.61;73.36
69842;BME280;57138;51.326;-0.068;2023-06-24T07:02:59;100649.84;;;19.56;73.05
69842;BME280;57138;51.326;-0.068;2023-06-24T07:05:24;100637.69;;;19.59;73.51
69842;BME280;57138;51.326;-0.068;2023-06-24T07:07:50;100640.03;;;19.67;73.84
69842;BME280;57138;51.326;-0.068;2023-06-24T07:12:42;100645.94;;;19.76;73.39
69842;BME280;57138;51.326;-0.068;2023-06-24T07:15:08;100659.72;;;19.86;73.60
69842;BME280;57138;51.326;-0.068;2023-06-24T07:17:33;100660.28;;;20.00;73.16
69842;BME280;57138;51.326;-0.068;2023-06-24T07:19:59;100652.94;;;20.13;73.02
69842;BME280;57138;51.326;-0.068;2023-06-24T07:22:24;100658.56;;;20.23;72.68
69842;BME280;57138;51.326;-0.068;2023-06-24T07:24:50;100652.75;;;20.31;72.21
69842;BME280;57138;51.326;-0.068;2023-06-24T07:27:15;100657.28;;;20.42;72.01
69842;BME280;57138;51.326;-0.068;2023-06-24T07:29:40;100655.81;;;20.52;71.41
69842;BME280;57138;51.326;-0.068;2023-06-24T07:32:06;100652.69;;;20.60;71.06
69842;BME280;57138;51.326;-0.068;2023-06-24T07:34:32;100644.69;;;20.65;71.07
69842;BME280;57138;51.326;-0.068;2023-06-24T07:36:58;100654.09;;;20.74;70.89
69842;BME280;57138;51.326;-0.068;2023-06-24T07:39:23;100649.31;;;20.81;70.57
69842;BME280;57138;51.326;-0.068;2023-06-24T07:41:49;100657.06;;;20.90;70.85
69842;BME280;57138;51.326;-0.068;2023-06-24T07:44:14;100661.03;;;20.99;70.63
69842;BME280;57138;51.326;-0.068;2023-06-24T07:46:39;100658.94;;;21.06;70.43
69842;BME280;57138;51.326;-0.068;2023-06-24T07:49:05;100654.44;;;21.12;69.66
69842;BME280;57138;51.326;-0.068;2023-06-24T07:51:30;100659.69;;;21.18;69.43
69842;BME280;57138;51.326;-0.068;2023-06-24T07:53:56;100658.38;;;21.21;69.56
69842;BME280;57138;51.326;-0.068;2023-06-24T07:56:21;100660.09;;;21.27;69.71
69842;BME280;57138;51.326;-0.068;2023-06-24T07:58:47;100654.72;;;21.32;69.24
69842;BME280;57138;51.326;-0.068;2023-06-24T08:01:13;100659.97;;;21.39;69.48
69842;BME280;57138;51.326;-0.068;2023-06-24T08:03:38;100666.09;;;21.46;68.60
69842;BME280;57138;51.326;-0.068;2023-06-24T08:06:04;100668.09;;;21.51;68.66
69842;BME280;57138;51.326;-0.068;2023-06-24T08:08:29;100676.63;;;21.60;68.23
69842;BME280;57138;51.326;-0.068;2023-06-24T08:10:54;100674.81;;;21.65;68.08
69842;BME280;57138;51.326;-0.068;2023-06-24T08:13:20;100675.22;;;21.74;68.13
69842;BME280;57138;51.326;-0.068;2023-06-24T08:15:46;100670.13;;;21.83;68.07
69842;BME280;57138;51.326;-0.068;2023-06-24T08:18:11;100665.09;;;21.92;68.07
69842;BME280;57138;51.326;-0.068;2023-06-24T08:20:36;100675.00;;;22.03;68.37
69842;BME280;57138;51.326;-0.068;2023-06-24T08:23:02;100676.22;;;22.12;67.61
69842;BME280;57138;51.326;-0.068;2023-06-24T08:25:27;100677.91;;;22.18;67.33
69842;BME280;57138;51.326;-0.068;2023-06-24T08:27:53;100674.00;;;22.31;66.83
69842;BME280;57138;51.326;-0.068;2023-06-24T08:30:19;100667.91;;;22.46;66.20
69842;BME280;57138;51.326;-0.068;2023-06-24T08:32:44;100668.47;;;22.48;65.56
69842;BME280;57138;51.326;-0.068;2023-06-24T08:35:10;100671.19;;;22.48;64.86
69842;BME280;57138;51.326;-0.068;2023-06-24T08:37:36;100667.38;;;22.49;64.75
69842;BME280;57138;51.326;-0.068;2023-06-24T08:40:02;100668.78;;;22.52;64.60
69842;BME280;57138;51.326;-0.068;2023-06-24T08:42:29;100669.91;;;22.56;64.17
69842;BME280;57138;51.326;-0.068;2023-06-24T08:44:55;100671.56;;;22.57;64.38
69842;BME280;57138;51.326;-0.068;2023-06-24T08:47:21;100663.28;;;22.74;65.59
69842;BME280;57138;51.326;-0.068;2023-06-24T08:50:12;100657.97;;;22.94;63.30
69842;BME280;57138;51.326;-0.068;2023-06-24T08:52:38;100662.41;;;23.01;62.58
69842;BME280;57138;51.326;-0.068;2023-06-24T08:55:08;100652.63;;;23.05;62.48
69842;BME280;57138;51.326;-0.068;2023-06-24T08:57:36;100646.81;;;22.96;62.50
69842;BME280;57138;51.326;-0.068;2023-06-24T09:00:02;100654.47;;;22.99;62.79
69842;BME280;57138;51.326;-0.068;2023-06-24T09:02:30;100649.44;;;23.13;62.84
69842;BME280;57138;51.326;-0.068;2023-06-24T09:04:58;100644.09;;;23.33;62.70
69842;BME280;57138;51.326;-0.068;2023-06-24T09:07:27;100648.06;;;23.58;61.02
69842;BME280;57138;51.326;-0.068;2023-06-24T09:09:55;100633.09;;;23.71;61.16
69842;BME280;57138;51.326;-0.068;2023-06-24T09:12:21;100643.31;;;23.91;61.07
69842;BME280;57138;51.326;-0.068;2023-06-24T09:14:50;100638.50;;;24.14;60.09
69842;BME280;57138;51.326;-0.068;2023-06-24T09:17:16;100636.59;;;24.25;59.15
69842;BME280;57138;51.326;-0.068;2023-06-24T09:19:42;100634.16;;;24.33;59.09
69842;BME280;57138;51.326;-0.068;2023-06-24T09:22:09;100645.66;;;24.51;59.29
69842;BME280;57138;51.326;-0.068;2023-06-24T09:24:41;100644.91;;;24.61;58.36
69842;BME280;57138;51.326;-0.068;2023-06-24T09:27:07;100631.16;;;24.55;58.00
69842;BME280;57138;51.326;-0.068;2023-06-24T09:29:34;100627.63;;;24.55;58.32
69842;BME280;57138;51.326;-0.068;2023-06-24T09:32:04;100626.59;;;24.71;58.30
69842;BME280;57138;51.326;-0.068;2023-06-24T09:34:30;100621.09;;;24.87;58.50
69842;BME280;57138;51.326;-0.068;2023-06-24T09:36:57;100622.16;;;25.06;58.58
69842;BME280;57138;51.326;-0.068;2023-06-24T09:39:23;100625.72;;;25.27;56.67
69842;BME280;57138;51.326;-0.068;2023-06-24T09:42:00;100619.66;;;25.41;56.91
69842;BME280;57138;51.326;-0.068;2023-06-24T09:44:26;100623.72;;;25.54;56.15
69842;BME280;57138;51.326;-0.068;2023-06-24T09:46:52;100624.25;;;25.61;55.58
69842;BME280;57138;51.326;-0.068;2023-06-24T09:49:18;100623.66;;;25.74;55.51
69842;BME280;57138;51.326;-0.068;2023-06-24T09:51:46;100622.50;;;25.86;55.62
69842;BME280;57138;51.326;-0.068;2023-06-24T09:54:13;100623.84;;;25.93;55.01
69842;BME280;57138;51.326;-0.068;2023-06-24T09:56:45;100620.50;;;26.07;54.03
69842;BME280;57138;51.326;-0.068;2023-06-24T09:59:13;100611.94;;;26.18;53.54
69842;BME280;57138;51.326;-0.068;2023-06-24T10:01:41;100615.16;;;26.31;53.30
69842;BME280;57138;51.326;-0.068;2023-06-24T10:04:09;100604.09;;;26.41;53.47
69842;BME280;57138;51.326;-0.068;2023-06-24T10:06:35;100605.22;;;26.40;51.39
69842;BME280;57138;51.326;-0.068;2023-06-24T10:09:01;100603.38;;;26.30;52.39
69842;BME280;57138;51.326;-0.068;2023-06-24T10:11:27;100596.81;;;26.26;51.18
69842;BME280;57138;51.326;-0.068;2023-06-24T10:13:53;100596.53;;;26.28;52.49
69842;BME280;57138;51.326;-0.068;2023-06-24T10:16:20;100599.91;;;26.19;52.70
69842;BME280;57138;51.326;-0.068;2023-06-24T10:18:45;100596.41;;;26.09;51.99
69842;BME280;57138;51.326;-0.068;2023-06-24T10:21:11;100590.06;;;26.13;51.79
69842;BME280;57138;51.326;-0.068;2023-06-24T10:26:24;100586.38;;;26.33;50.85
69842;BME280;57138;51.326;-0.068;2023-06-24T10:29:08;100588.50;;;26.36;49.16
69842;BME280;57138;51.326;-0.068;2023-06-24T10:31:55;100591.72;;;26.09;48.43
69842;BME280;57138;51.326;-0.068;2023-06-24T10:34:47;100581.91;;;25.93;49.13
69842;BME280;57138;51.326;-0.068;2023-06-24T10:37:20;100582.97;;;26.07;49.12
69842;BME280;57138;51.326;-0.068;2023-06-24T10:39:56;100584.31;;;26.10;48.37
69842;BME280;57138;51.326;-0.068;2023-06-24T10:45:13;100581.75;;;26.24;51.10
69842;BME280;57138;51.326;-0.068;2023-06-24T10:47:41;100571.88;;;26.28;49.83
69842;BME280;57138;51.326;-0.068;2023-06-24T10:50:15;100568.47;;;26.41;50.92
69842;BME280;57138;51.326;-0.068;2023-06-24T10:52:45;100554.03;;;26.65;49.62
69842;BME280;57138;51.326;-0.068;2023-06-24T10:55:16;100551.19;;;26.80;49.97
69842;BME280;57138;51.326;-0.068;2023-06-24T10:57:41;100550.69;;;26.97;49.74
69842;BME280;57138;51.326;-0.068;2023-06-24T11:00:08;100551.78;;;27.25;49.02
69842;BME280;57138;51.326;-0.068;2023-06-24T11:02:33;100554.91;;;27.43;49.01
69842;BME280;57138;51.326;-0.068;2023-06-24T11:05:00;100550.00;;;27.40;47.64
69842;BME280;57138;51.326;-0.068;2023-06-24T11:07:34;100550.13;;;27.24;47.80
69842;BME280;57138;51.326;-0.068;2023-06-24T11:10:11;100544.81;;;27.09;48.33
69842;BME280;57138;51.326;-0.068;2023-06-24T11:12:38;100549.38;;;26.95;48.70
69842;BME280;57138;51.326;-0.068;2023-06-24T11:15:06;100545.63;;;26.85;48.49
69842;BME280;57138;51.326;-0.068;2023-06-24T11:17:36;100531.47;;;26.73;48.65
69842;BME280;57138;51.326;-0.068;2023-06-24T11:20:06;100533.72;;;26.71;49.41
69842;BME280;57138;51.326;-0.068;2023-06-24T11:22:32;100543.63;;;26.91;49.99
69842;BME280;57138;51.326;-0.068;2023-06-24T11:24:57;100531.09;;;27.09;50.46
69842;BME280;57138;51.326;-0.068;2023-06-24T11:27:27;100539.38;;;27.33;49.54
69842;BME280;57138;51.326;-0.068;2023-06-24T11:29:56;100537.84;;;27.46;47.43
69842;BME280;57138;51.326;-0.068;2023-06-24T11:32:24;100526.78;;;27.51;47.93
69842;BME280;57138;51.326;-0.068;2023-06-24T11:34:50;100527.66;;;27.47;47.66
69842;BME280;57138;51.326;-0.068;2023-06-24T11:37:17;100519.13;;;27.48;47.09
69842;BME280;57138;51.326;-0.068;2023-06-24T11:39:44;100519.63;;;27.50;47.03
69842;BME280;57138;51.326;-0.068;2023-06-24T11:42:11;100516.97;;;27.45;47.37
69842;BME280;57138;51.326;-0.068;2023-06-24T11:44:44;100508.13;;;27.48;47.43
69842;BME280;57138;51.326;-0.068;2023-06-24T11:47:10;100516.53;;;27.57;47.82
69842;BME280;57138;51.326;-0.068;2023-06-24T11:52:15;100510.97;;;27.62;47.72
69842;BME280;57138;51.326;-0.068;2023-06-24T11:54:41;100512.06;;;27.61;48.04
69842;BME280;57138;51.326;-0.068;2023-06-24T11:57:07;100511.78;;;27.62;46.79
69842;BME280;57138;51.326;-0.068;2023-06-24T11:59:33;100506.53;;;27.66;47.36
69842;BME280;57138;51.326;-0.068;2023-06-24T12:01:59;100505.94;;;27.69;47.15
69842;BME280;57138;51.326;-0.068;2023-06-24T12:04:32;100504.00;;;27.70;47.76
69842;BME280;57138;51.326;-0.068;2023-06-24T12:06:59;100502.22;;;27.79;47.68
69842;BME280;57138;51.326;-0.068;2023-06-24T12:09:25;100502.38;;;27.88;45.55
69842;BME280;57138;51.326;-0.068;2023-06-24T12:11:51;100504.38;;;27.82;45.76
69842;BME280;57138;51.326;-0.068;2023-06-24T12:14:17;100490.72;;;27.77;45.94
69842;BME280;57138;51.326;-0.068;2023-06-24T12:16:43;100497.22;;;27.81;47.13
69842;BME280;57138;51.326;-0.068;2023-06-24T12:19:09;100494.47;;;27.81;46.35
69842;BME280;57138;51.326;-0.068;2023-06-24T12:21:35;100496.03;;;27.87;45.98
69842;BME280;57138;51.326;-0.068;2023-06-24T12:24:04;100493.22;;;27.92;46.85
69842;BME280;57138;51.326;-0.068;2023-06-24T12:26:31;100494.28;;;27.96;46.31
69842;BME280;57138;51.326;-0.068;2023-06-24T12:28:56;100483.28;;;27.96;45.97
69842;BME280;57138;51.326;-0.068;2023-06-24T12:31:23;100485.50;;;27.94;46.03
69842;BME280;57138;51.326;-0.068;2023-06-24T12:33:49;100492.63;;;27.95;45.51
69842;BME280;57138;51.326;-0.068;2023-06-24T12:36:15;100484.09;;;27.97;46.50
69842;BME280;57138;51.326;-0.068;2023-06-24T12:38:40;100484.84;;;28.03;46.92
69842;BME280;57138;51.326;-0.068;2023-06-24T12:41:06;100472.44;;;28.05;46.17
69842;BME280;57138;51.326;-0.068;2023-06-24T12:43:32;100484.75;;;28.08;46.47
69842;BME280;57138;51.326;-0.068;2023-06-24T12:45:58;100474.19;;;28.15;45.93
69842;BME280;57138;51.326;-0.068;2023-06-24T12:48:24;100481.75;;;28.23;45.70
69842;BME280;57138;51.326;-0.068;2023-06-24T12:50:49;100480.53;;;28.29;45.22
69842;BME280;57138;51.326;-0.068;2023-06-24T12:53:21;100475.50;;;28.37;46.01
69842;BME280;57138;51.326;-0.068;2023-06-24T12:55:47;100473.97;;;28.44;45.94
69842;BME280;57138;51.326;-0.068;2023-06-24T12:58:14;100481.81;;;28.51;46.04
69842;BME280;57138;51.326;-0.068;2023-06-24T13:00:40;100475.72;;;28.54;44.98